Bronx, New York
Current Conditions -  °F | °C
As of 10:51 PM on Thursday 18 Dec 2014 (Local Time) from KLGA Reporting Station
Scattered Clouds Scattered Clouds  
Wind Chill: -2°   Ceiling: Unl
Heat Index:   Visibility: 10mi
Dew Point: -3°   Wind: 15mph
Humidity: 65%   Direction: 310°NW
Pressure: 29.97"   Gusts: NA
Location:  40.85°N, 73.87°W
Report Text: KLGA 190351Z 31013KT 10SM FEW032 SCT250 03/M03 A2997 RMK AO2 SLP148 T00331028
Loading
Personal Weather Stations






























Interactive Weather Map New forecast layout! Learn more

10-Day Weather Forecast

Advertisements
Track Severe Weather on mobile